createdAt,value
2022-10-09T00:01:12.661Z,9.2
2022-10-09T00:06:18.868Z,9.2
2022-10-09T00:16:31.385Z,9.0
2022-10-09T00:21:37.492Z,9.0
2022-10-09T00:26:43.693Z,9.0
2022-10-09T00:31:49.916Z,8.9
2022-10-09T00:36:56.110Z,8.8
2022-10-09T00:42:02.334Z,8.8
2022-10-09T00:47:08.531Z,8.8
2022-10-09T00:52:14.738Z,8.7
2022-10-09T00:57:20.942Z,8.7
2022-10-09T01:02:27.175Z,8.7
2022-10-09T01:07:33.359Z,8.6
2022-10-09T01:12:39.564Z,8.6
2022-10-09T01:17:45.788Z,8.6
2022-10-09T01:22:52.027Z,8.6
2022-10-09T01:27:58.189Z,8.5
2022-10-09T01:33:04.398Z,8.5
2022-10-09T01:43:16.808Z,8.4
2022-10-09T01:48:22.049Z,8.4
2022-10-09T01:53:28.262Z,8.3
2022-10-09T01:58:33.494Z,8.3
2022-10-09T02:03:39.696Z,8.2
2022-10-09T02:08:45.906Z,8.2
2022-10-09T02:13:52.124Z,8.1
2022-10-09T02:18:58.324Z,8.1
2022-10-09T02:24:04.525Z,8.1
2022-10-09T02:29:10.733Z,8.1
2022-10-09T02:34:16.946Z,8.0
2022-10-09T02:39:23.150Z,7.9
2022-10-09T02:44:29.358Z,7.9
2022-10-09T02:49:35.574Z,7.9
2022-10-09T02:54:41.781Z,7.9
2022-10-09T02:59:47.982Z,7.8
2022-10-09T03:04:54.195Z,7.8
2022-10-09T03:10:00.409Z,7.8
2022-10-09T03:15:06.609Z,7.8
2022-10-09T03:20:12.825Z,7.7
2022-10-09T03:25:19.022Z,7.7
2022-10-09T03:30:25.252Z,7.7
2022-10-09T03:35:31.434Z,7.7
2022-10-09T03:40:37.641Z,7.6
2022-10-09T03:50:49.087Z,7.6
2022-10-09T03:55:54.327Z,7.6
2022-10-09T04:01:00.645Z,7.6
2022-10-09T04:06:05.770Z,7.5
2022-10-09T04:11:11.980Z,7.5
2022-10-09T04:16:18.205Z,7.5
2022-10-09T04:21:24.382Z,7.5
2022-10-09T04:26:30.594Z,7.5
2022-10-09T04:31:36.900Z,7.4
2022-10-09T04:36:43.011Z,7.4
2022-10-09T04:41:49.216Z,7.3
2022-10-09T04:46:55.424Z,7.3
2022-10-09T04:52:01.632Z,7.2
2022-10-09T04:57:07.847Z,7.1
2022-10-09T05:02:14.175Z,7.1
2022-10-09T05:07:20.262Z,7.0
2022-10-09T05:12:26.461Z,7.0
2022-10-09T05:17:32.758Z,6.9
2022-10-09T05:22:38.881Z,6.9
2022-10-09T05:27:45.083Z,6.9
2022-10-09T05:32:51.759Z,6.8
2022-10-09T05:37:57.496Z,6.8
2022-10-09T05:43:03.713Z,6.8
2022-10-09T05:48:09.913Z,6.7
2022-10-09T05:53:15.148Z,6.6
2022-10-09T05:58:20.373Z,6.6
2022-10-09T06:03:26.588Z,6.6
2022-10-09T06:08:32.799Z,6.6
2022-10-09T06:13:38.995Z,6.7
2022-10-09T06:18:49.591Z,6.7
2022-10-09T06:23:51.405Z,6.7
2022-10-09T06:28:57.618Z,6.7
2022-10-09T06:34:03.828Z,6.8
2022-10-09T06:39:10.036Z,6.9
2022-10-09T06:44:16.821Z,6.9
2022-10-09T06:49:22.459Z,7.0
2022-10-09T06:54:28.660Z,7.2
2022-10-09T06:59:34.871Z,7.4
2022-10-09T07:04:41.077Z,7.5
2022-10-09T07:09:47.283Z,7.7
2022-10-09T07:14:53.494Z,7.9
2022-10-09T07:19:59.692Z,8.0
2022-10-09T07:25:05.898Z,8.2
2022-10-09T07:30:12.112Z,8.4
2022-10-09T07:35:18.434Z,8.5
2022-10-09T07:40:23.562Z,8.6
2022-10-09T07:45:29.761Z,8.8
2022-10-09T07:50:35.967Z,9.0
2022-10-09T07:55:42.175Z,9.2
2022-10-09T08:00:48.389Z,9.3
2022-10-09T08:05:54.592Z,9.5
2022-10-09T08:11:00.800Z,9.7
2022-10-09T08:16:07.229Z,9.9
2022-10-09T08:21:13.208Z,10.1
2022-10-09T08:26:19.417Z,10.3
2022-10-09T08:31:25.770Z,10.5
2022-10-09T08:36:31.833Z,10.7
2022-10-09T08:41:38.044Z,11.0
2022-10-09T08:46:44.282Z,11.3
2022-10-09T08:51:50.478Z,11.6
2022-10-09T08:56:56.669Z,11.9
2022-10-09T09:02:02.919Z,12.2
2022-10-09T09:07:09.088Z,12.6
2022-10-09T09:12:15.288Z,12.8
2022-10-09T09:17:21.498Z,13.1
2022-10-09T09:22:27.762Z,13.4
2022-10-09T09:27:32.948Z,13.7
2022-10-09T09:32:39.151Z,14.0
2022-10-09T09:37:44.392Z,14.3
2022-10-09T09:42:51.119Z,14.5
2022-10-09T09:47:55.843Z,14.8
2022-10-09T09:53:02.067Z,15.0
2022-10-09T09:58:08.269Z,15.2
2022-10-09T10:03:13.518Z,15.5
2022-10-09T10:08:19.734Z,15.7
2022-10-09T10:13:25.969Z,15.9
2022-10-09T10:18:32.165Z,16.1
2022-10-09T10:23:38.361Z,16.2
2022-10-09T10:28:44.630Z,16.4
2022-10-09T10:33:50.775Z,16.5
2022-10-09T10:38:56.993Z,16.7
2022-10-09T10:44:03.226Z,16.9
2022-10-09T10:49:09.409Z,17.0
2022-10-09T10:54:15.611Z,17.2
2022-10-09T10:59:21.824Z,17.3
2022-10-09T11:04:28.037Z,17.5
2022-10-09T11:09:34.233Z,17.6
2022-10-09T11:14:40.445Z,17.8
2022-10-09T11:19:46.655Z,17.9
2022-10-09T11:24:52.864Z,18.0
2022-10-09T11:29:59.080Z,18.2
2022-10-09T11:35:05.286Z,18.3
2022-10-09T11:40:11.504Z,18.5
2022-10-09T11:45:17.696Z,18.6
2022-10-09T11:50:22.942Z,18.7
2022-10-09T11:55:29.139Z,18.9
2022-10-09T12:00:34.376Z,19.0
2022-10-09T12:05:40.590Z,19.1
2022-10-09T12:10:46.799Z,19.2
2022-10-09T12:15:53.010Z,19.3
2022-10-09T12:20:59.210Z,19.4
2022-10-09T12:26:05.427Z,19.5
2022-10-09T12:31:11.714Z,19.6
2022-10-09T12:36:17.838Z,19.7
2022-10-09T12:41:24.045Z,19.8
2022-10-09T12:46:30.270Z,19.9
2022-10-09T12:51:36.498Z,20.0
2022-10-09T12:56:42.675Z,20.0
2022-10-09T13:01:49.083Z,20.0
2022-10-09T13:06:55.090Z,20.1
2022-10-09T13:12:01.299Z,20.2
2022-10-09T13:17:07.554Z,20.2
2022-10-09T13:22:13.716Z,20.3
2022-10-09T13:27:19.925Z,20.3
2022-10-09T13:32:26.182Z,20.3
2022-10-09T13:42:38.559Z,20.4
2022-10-09T13:47:44.765Z,20.4
2022-10-09T13:52:50.003Z,20.4
2022-10-09T13:57:56.205Z,20.4
2022-10-09T14:03:02.420Z,20.3
2022-10-09T14:08:07.649Z,20.3
2022-10-09T14:13:13.857Z,20.4
2022-10-09T14:18:20.079Z,20.3
2022-10-09T14:23:26.300Z,20.3
2022-10-09T14:28:32.531Z,20.3
2022-10-09T14:33:38.891Z,20.2
2022-10-09T14:38:44.900Z,20.2
2022-10-09T14:43:51.106Z,20.2
2022-10-09T14:48:57.344Z,20.2
2022-10-09T14:54:03.531Z,20.1
2022-10-09T14:59:09.731Z,20.0
2022-10-09T15:04:16.050Z,20.0
2022-10-09T15:09:22.163Z,19.9
2022-10-09T15:14:28.360Z,19.9
2022-10-09T15:19:34.573Z,19.9
2022-10-09T15:24:40.776Z,19.8
2022-10-09T15:29:46.990Z,19.8
2022-10-09T15:34:53.191Z,19.8
2022-10-09T15:39:59.398Z,19.7
2022-10-09T15:45:05.609Z,19.6
2022-10-09T15:50:11.819Z,19.6
2022-10-09T15:55:17.054Z,19.5
2022-10-09T16:00:23.257Z,19.4
2022-10-09T16:05:29.476Z,19.3
2022-10-09T16:10:34.703Z,19.2
2022-10-09T16:15:40.914Z,19.1
2022-10-09T16:20:47.124Z,18.9
2022-10-09T16:25:53.335Z,18.8
2022-10-09T16:30:59.538Z,18.7
2022-10-09T16:36:05.756Z,18.5
2022-10-09T16:41:11.959Z,18.4
2022-10-09T16:46:18.285Z,18.3
2022-10-09T16:51:24.374Z,18.1
2022-10-09T16:56:30.579Z,18.0
2022-10-09T17:01:36.783Z,17.8
2022-10-09T17:06:42.994Z,17.6
2022-10-09T17:11:49.205Z,17.5
2022-10-09T17:16:55.443Z,17.3
2022-10-09T17:22:01.620Z,17.1
2022-10-09T17:27:07.827Z,17.0
2022-10-09T17:32:14.059Z,16.8
2022-10-09T17:37:20.245Z,16.6
2022-10-09T17:42:26.454Z,16.4
2022-10-09T17:47:32.662Z,16.2
2022-10-09T17:52:38.874Z,16.1
2022-10-09T17:57:44.116Z,15.9
2022-10-09T18:02:50.320Z,15.7
2022-10-09T18:07:55.558Z,15.6
2022-10-09T18:13:01.768Z,15.4
2022-10-09T18:18:07.969Z,15.3
2022-10-09T18:23:14.192Z,15.1
2022-10-09T18:28:20.532Z,15.0
2022-10-09T18:33:26.622Z,14.8
2022-10-09T18:38:32.844Z,14.7
2022-10-09T18:43:39.048Z,14.5
2022-10-09T18:48:45.252Z,14.4
2022-10-09T18:53:51.463Z,14.3
2022-10-09T18:58:57.676Z,14.2
2022-10-09T19:04:03.888Z,14.1
2022-10-09T19:09:10.108Z,14.1
2022-10-09T19:14:16.300Z,14.0
2022-10-09T19:19:22.523Z,13.9
2022-10-09T19:24:32.181Z,13.9
2022-10-09T19:29:34.947Z,13.9
2022-10-09T19:34:41.155Z,13.9
2022-10-09T19:39:47.341Z,13.9
2022-10-09T19:44:53.557Z,13.9
2022-10-09T19:49:59.768Z,13.9
2022-10-09T19:55:05.011Z,13.9
2022-10-09T20:00:11.222Z,13.8
2022-10-09T20:05:16.442Z,13.8
2022-10-09T20:10:22.653Z,13.7
2022-10-09T20:15:28.860Z,13.7
2022-10-09T20:20:35.069Z,13.6
2022-10-09T20:25:41.276Z,13.6
2022-10-09T20:30:47.498Z,13.5
2022-10-09T20:35:53.692Z,13.5
2022-10-09T20:40:59.920Z,13.4
2022-10-09T20:46:06.115Z,13.4
2022-10-09T20:51:12.323Z,13.3
2022-10-09T20:56:18.532Z,13.2
2022-10-09T21:01:24.792Z,13.1
2022-10-09T21:06:30.947Z,13.1
2022-10-09T21:11:37.154Z,13.0
2022-10-09T21:16:43.356Z,13.0
2022-10-09T21:21:51.170Z,12.9
2022-10-09T21:26:55.780Z,12.8
2022-10-09T21:32:01.998Z,12.8
2022-10-09T21:37:21.004Z,12.7
2022-10-09T21:42:14.405Z,12.6
2022-10-09T21:47:20.613Z,12.6
2022-10-09T21:52:25.841Z,12.5
2022-10-09T21:57:32.063Z,12.4
2022-10-09T22:02:37.287Z,12.4
2022-10-09T22:07:43.501Z,12.3
2022-10-09T22:12:49.923Z,12.3
2022-10-09T22:17:55.909Z,12.2
2022-10-09T22:23:02.122Z,12.2
2022-10-09T22:28:08.350Z,12.2
2022-10-09T22:33:14.545Z,12.1
2022-10-09T22:38:20.743Z,12.1
2022-10-09T22:43:26.950Z,12.0
2022-10-09T22:48:33.159Z,11.9
2022-10-09T22:53:39.368Z,11.9
2022-10-09T22:58:45.576Z,11.8
2022-10-09T23:03:50.807Z,11.7
2022-10-09T23:08:57.014Z,11.7
2022-10-09T23:14:03.218Z,11.6
2022-10-09T23:19:09.425Z,11.5
2022-10-09T23:24:15.633Z,11.4
2022-10-09T23:29:21.848Z,11.3
2022-10-09T23:34:28.051Z,11.2
2022-10-09T23:39:34.255Z,11.2
2022-10-09T23:44:40.470Z,11.1
2022-10-09T23:49:45.714Z,11.0
2022-10-09T23:54:51.913Z,10.9
2022-10-09T23:59:57.153Z,10.8
